createdAt,value
2022-12-01T00:01:06.604Z,10.99
2022-12-01T00:03:33.616Z,11.19
2022-12-01T00:06:05.171Z,11.19
2022-12-01T00:08:32.415Z,11.28
2022-12-01T00:11:07.169Z,11.14
2022-12-01T00:13:34.396Z,10.90
2022-12-01T00:16:15.384Z,10.94
2022-12-01T00:18:43.041Z,11.02
2022-12-01T00:21:21.500Z,10.89
2022-12-01T00:23:51.031Z,11.27
2022-12-01T00:26:18.550Z,10.70
2022-12-01T00:28:49.758Z,10.85
2022-12-01T00:31:16.308Z,11.16
2022-12-01T00:33:43.058Z,10.99
2022-12-01T00:36:10.029Z,10.70
2022-12-01T00:38:37.069Z,11.16
2022-12-01T00:41:04.138Z,11.17
2022-12-01T00:43:30.679Z,11.15
2022-12-01T00:45:57.354Z,10.83
2022-12-01T00:48:23.989Z,11.05
2022-12-01T00:50:52.057Z,11.12
2022-12-01T00:53:19.025Z,10.59
2022-12-01T00:55:45.855Z,10.85
2022-12-01T00:58:12.499Z,10.47
2022-12-01T01:00:39.713Z,11.14
2022-12-01T01:03:07.101Z,10.61
2022-12-01T01:05:37.800Z,11.14
2022-12-01T01:08:11.648Z,11.12
2022-12-01T01:10:42.968Z,11.29
2022-12-01T01:13:10.243Z,11.20
2022-12-01T01:15:37.357Z,11.31
2022-12-01T01:18:05.011Z,11.46
2022-12-01T01:20:31.845Z,11.32
2022-12-01T01:22:58.539Z,11.08
2022-12-01T01:25:25.414Z,10.92
2022-12-01T01:27:51.885Z,10.77
2022-12-01T01:30:18.697Z,10.68
2022-12-01T01:32:45.186Z,10.78
2022-12-01T01:35:11.780Z,10.97
2022-12-01T01:37:38.361Z,11.09
2022-12-01T01:40:05.823Z,11.32
2022-12-01T01:42:32.399Z,10.76
2022-12-01T01:44:59.570Z,10.27
2022-12-01T01:47:35.860Z,10.88
2022-12-01T01:50:09.306Z,10.78
2022-12-01T01:52:38.532Z,10.58
2022-12-01T01:55:05.546Z,10.80
2022-12-01T01:57:33.370Z,10.68
2022-12-01T02:00:11.269Z,11.11
2022-12-01T02:02:44.967Z,11.06
2022-12-01T02:05:27.143Z,10.79
2022-12-01T02:07:56.168Z,10.51
2022-12-01T02:10:39.389Z,10.18
2022-12-01T02:13:13.944Z,10.34
2022-12-01T02:15:56.569Z,9.92
2022-12-01T02:18:44.523Z,10.59
2022-12-01T02:21:40.536Z,10.90
2022-12-01T02:24:44.525Z,11.22
2022-12-01T02:27:52.286Z,11.32
2022-12-01T02:30:57.377Z,10.80
2022-12-01T02:33:27.848Z,11.26
2022-12-01T02:35:57.198Z,11.09
2022-12-01T02:38:47.487Z,11.37
2022-12-01T02:41:26.998Z,10.39
2022-12-01T02:44:15.979Z,10.87
2022-12-01T02:46:49.947Z,11.05
2022-12-01T02:49:19.806Z,10.75
2022-12-01T02:51:46.327Z,11.18
2022-12-01T02:54:14.686Z,10.97
2022-12-01T02:56:44.419Z,10.76
2022-12-01T02:59:12.188Z,10.52
2022-12-01T03:02:04.311Z,11.02
2022-12-01T03:05:00.012Z,11.02
2022-12-01T03:07:35.718Z,11.32
2022-12-01T03:10:37.056Z,11.26
2022-12-01T03:13:20.167Z,10.94
2022-12-01T03:16:05.723Z,10.81
2022-12-01T03:18:56.152Z,10.81
2022-12-01T03:21:41.709Z,10.67
2022-12-01T03:24:11.758Z,10.98
2022-12-01T03:26:41.345Z,10.73
2022-12-01T03:29:15.908Z,10.54
2022-12-01T03:31:47.704Z,10.55
2022-12-01T03:34:18.331Z,10.63
2022-12-01T03:36:52.907Z,10.59
2022-12-01T03:39:23.240Z,10.74
2022-12-01T03:41:58.489Z,10.83
2022-12-01T03:44:30.077Z,11.17
2022-12-01T03:47:02.100Z,10.96
2022-12-01T03:49:29.016Z,10.79
2022-12-01T03:52:03.275Z,10.98
2022-12-01T03:54:44.971Z,11.04
2022-12-01T03:57:15.079Z,10.37
2022-12-01T03:59:42.780Z,10.57
2022-12-01T04:02:09.375Z,10.63
2022-12-01T04:04:35.993Z,10.76
2022-12-01T04:07:02.745Z,10.84
2022-12-01T04:09:29.207Z,10.03
2022-12-01T04:12:14.260Z,10.90
2022-12-01T04:14:41.971Z,11.23
2022-12-01T04:17:09.055Z,10.71
2022-12-01T04:19:35.569Z,10.97
2022-12-01T04:22:02.084Z,10.73
2022-12-01T04:24:28.791Z,10.78
2022-12-01T04:26:55.271Z,10.57
2022-12-01T04:29:21.776Z,11.06
2022-12-01T04:31:48.303Z,11.01
2022-12-01T04:34:14.817Z,10.44
2022-12-01T04:36:41.355Z,10.76
2022-12-01T04:39:07.869Z,10.76
2022-12-01T04:41:34.478Z,10.27
2022-12-01T04:44:00.991Z,10.44
2022-12-01T04:46:27.831Z,10.60
2022-12-01T04:48:54.499Z,10.26
2022-12-01T04:51:22.251Z,10.10
2022-12-01T04:53:50.009Z,10.30
2022-12-01T04:56:16.576Z,10.40
2022-12-01T04:58:43.298Z,10.55
2022-12-01T05:01:14.574Z,10.24
2022-12-01T05:03:43.462Z,10.63
2022-12-01T05:06:15.264Z,10.40
2022-12-01T05:08:41.883Z,10.65
2022-12-01T05:11:11.229Z,10.60
2022-12-01T05:13:40.047Z,10.72
2022-12-01T05:16:17.644Z,10.68
2022-12-01T05:18:47.870Z,10.22
2022-12-01T05:21:14.619Z,10.17
2022-12-01T05:23:41.147Z,10.13
2022-12-01T05:26:08.649Z,10.49
2022-12-01T05:28:35.533Z,10.41
2022-12-01T05:31:02.627Z,10.47
2022-12-01T05:33:29.987Z,10.27
2022-12-01T05:35:57.049Z,10.26
2022-12-01T05:38:24.178Z,9.96
2022-12-01T05:40:51.817Z,10.13
2022-12-01T05:43:21.661Z,10.28
2022-12-01T05:45:51.937Z,10.00
2022-12-01T05:48:18.549Z,9.78
2022-12-01T05:50:45.143Z,10.08
2022-12-01T05:53:13.668Z,10.27
2022-12-01T05:55:40.280Z,10.32
2022-12-01T05:58:07.400Z,10.59
2022-12-01T06:00:34.345Z,10.46
2022-12-01T06:03:01.020Z,10.38
2022-12-01T06:05:27.784Z,10.44
2022-12-01T06:07:54.417Z,9.40
2022-12-01T06:10:21.132Z,9.97
2022-12-01T06:12:47.705Z,10.00
2022-12-01T06:15:14.320Z,10.00
2022-12-01T06:17:40.814Z,10.12
2022-12-01T06:20:08.515Z,10.33
2022-12-01T06:22:35.076Z,9.94
2022-12-01T06:25:01.578Z,9.69
2022-12-01T06:27:28.337Z,9.71
2022-12-01T06:29:54.793Z,10.02
2022-12-01T06:32:21.336Z,10.07
2022-12-01T06:34:47.803Z,8.79
2022-12-01T06:37:15.664Z,9.80
2022-12-01T06:39:42.555Z,9.53
2022-12-01T06:42:09.384Z,10.07
2022-12-01T06:44:35.916Z,10.42
2022-12-01T06:47:02.457Z,10.16
2022-12-01T06:49:29.006Z,10.03
2022-12-01T06:51:55.648Z,10.30
2022-12-01T06:54:22.262Z,10.23
2022-12-01T06:56:48.773Z,10.14
2022-12-01T06:59:15.663Z,10.18
2022-12-01T07:01:42.489Z,9.86
2022-12-01T07:04:09.007Z,10.05
2022-12-01T07:06:35.532Z,9.83
2022-12-01T07:09:02.078Z,9.86
2022-12-01T07:11:30.038Z,9.61
2022-12-01T07:13:56.712Z,9.85
2022-12-01T07:16:23.424Z,9.83
2022-12-01T07:18:50.140Z,9.62
2022-12-01T07:21:17.181Z,9.58
2022-12-01T07:23:43.899Z,9.85
2022-12-01T07:26:12.788Z,9.56
2022-12-01T07:28:39.623Z,10.24
2022-12-01T07:31:17.147Z,10.32
2022-12-01T07:33:43.913Z,9.58
2022-12-01T07:36:11.740Z,10.03
2022-12-01T07:38:39.128Z,10.02
2022-12-01T07:41:08.163Z,10.01
2022-12-01T07:43:35.199Z,9.63
2022-12-01T07:46:10.032Z,9.78
2022-12-01T07:48:37.864Z,9.90
2022-12-01T07:51:09.692Z,9.86
2022-12-01T07:53:36.450Z,9.78
2022-12-01T07:56:08.377Z,9.71
2022-12-01T07:58:35.990Z,9.52
2022-12-01T08:01:15.475Z,9.47
2022-12-01T08:03:42.407Z,9.85
2022-12-01T08:06:09.667Z,9.13
2022-12-01T08:08:38.668Z,9.06
2022-12-01T08:11:07.654Z,9.45
2022-12-01T08:13:34.344Z,9.61
2022-12-01T08:16:06.495Z,9.75
2022-12-01T08:18:37.358Z,10.16
2022-12-01T08:21:04.807Z,10.00
2022-12-01T08:23:31.294Z,10.27
2022-12-01T08:26:02.190Z,9.85
2022-12-01T08:28:28.905Z,9.90
2022-12-01T08:30:56.097Z,10.21
2022-12-01T08:33:22.677Z,10.33
2022-12-01T08:35:49.258Z,10.40
2022-12-01T08:38:15.952Z,10.89
2022-12-01T08:40:42.404Z,10.81
2022-12-01T08:43:12.344Z,10.94
2022-12-01T08:45:45.207Z,11.23
2022-12-01T08:48:11.783Z,11.22
2022-12-01T08:50:38.259Z,11.28
2022-12-01T08:53:04.783Z,10.90
2022-12-01T08:55:31.328Z,11.41
2022-12-01T08:57:58.417Z,11.32
2022-12-01T09:00:25.265Z,11.36
2022-12-01T09:02:51.808Z,11.32
2022-12-01T09:05:18.572Z,11.18
2022-12-01T09:08:04.989Z,10.77
2022-12-01T09:10:31.501Z,10.92
2022-12-01T09:12:58.081Z,10.96
2022-12-01T09:15:24.584Z,10.59
2022-12-01T09:17:51.105Z,10.49
2022-12-01T09:20:17.592Z,10.79
2022-12-01T09:22:44.029Z,10.74
2022-12-01T09:25:14.666Z,10.70
2022-12-01T09:27:41.184Z,10.83
2022-12-01T09:30:08.312Z,10.86
2022-12-01T09:32:35.210Z,10.98
2022-12-01T09:35:01.663Z,11.38
2022-12-01T09:37:28.240Z,11.16
2022-12-01T09:39:55.788Z,11.32
2022-12-01T09:42:30.819Z,11.41
2022-12-01T09:45:02.787Z,11.03
2022-12-01T09:47:31.883Z,11.15
2022-12-01T09:50:07.633Z,11.16
2022-12-01T09:52:40.303Z,11.76
2022-12-01T09:55:12.039Z,11.42
2022-12-01T09:57:40.342Z,11.22
2022-12-01T10:00:16.526Z,11.40
2022-12-01T10:02:49.220Z,11.81
2022-12-01T10:05:22.765Z,11.70
2022-12-01T10:07:56.529Z,11.80
2022-12-01T10:10:30.784Z,12.33
2022-12-01T10:12:57.450Z,12.12
2022-12-01T10:15:30.010Z,12.38
2022-12-01T10:18:05.618Z,12.37
2022-12-01T10:20:39.544Z,12.66
2022-12-01T10:23:06.394Z,12.61
2022-12-01T10:25:41.507Z,12.48
2022-12-01T10:28:20.279Z,12.16
2022-12-01T10:30:51.797Z,12.01
2022-12-01T10:33:34.271Z,12.28
2022-12-01T10:36:00.936Z,11.79
2022-12-01T10:38:35.090Z,11.76
2022-12-01T10:41:02.676Z,12.23
2022-12-01T10:43:34.338Z,11.85
2022-12-01T10:46:25.399Z,12.18
2022-12-01T10:48:56.788Z,11.92
2022-12-01T10:51:23.848Z,12.15
2022-12-01T10:53:50.824Z,12.12
2022-12-01T10:56:19.518Z,11.65
2022-12-01T10:58:50.541Z,11.59
2022-12-01T11:01:20.911Z,11.69
2022-12-01T11:04:01.526Z,12.06
2022-12-01T11:06:29.704Z,12.44
2022-12-01T11:09:22.818Z,12.74
2022-12-01T11:12:01.729Z,12.98
2022-12-01T11:14:37.248Z,13.26
2022-12-01T11:17:22.524Z,12.80
2022-12-01T11:19:49.528Z,12.98
2022-12-01T11:22:22.323Z,12.76
2022-12-01T11:25:03.463Z,12.61
2022-12-01T11:27:51.160Z,12.60
2022-12-01T11:30:29.277Z,11.69
2022-12-01T11:32:58.544Z,11.49
2022-12-01T11:35:28.472Z,11.41
2022-12-01T11:38:28.205Z,11.46
2022-12-01T11:40:50.462Z,11.92
2022-12-01T11:43:24.940Z,11.40
2022-12-01T11:45:51.854Z,12.01
2022-12-01T11:48:25.900Z,11.93
2022-12-01T11:51:06.280Z,11.55
2022-12-01T11:53:34.697Z,11.06
2022-12-01T11:56:20.792Z,11.69
2022-12-01T11:58:48.772Z,11.45
2022-12-01T12:01:32.367Z,11.66
2022-12-01T12:04:03.853Z,11.70
2022-12-01T12:06:46.168Z,12.46
2022-12-01T12:09:54.551Z,11.74
2022-12-01T12:12:36.366Z,12.11
2022-12-01T12:15:18.465Z,11.50
2022-12-01T12:17:54.198Z,11.25
2022-12-01T12:20:29.718Z,11.70
2022-12-01T12:23:24.728Z,11.85
2022-12-01T12:26:06.520Z,12.04
2022-12-01T12:29:17.122Z,11.49
2022-12-01T12:32:04.798Z,11.16
2022-12-01T12:34:53.146Z,11.09
2022-12-01T12:37:35.498Z,11.10
2022-12-01T12:40:36.166Z,11.56
2022-12-01T12:43:14.855Z,11.53
2022-12-01T12:46:00.717Z,11.71
2022-12-01T12:48:30.197Z,11.53
2022-12-01T12:51:05.694Z,11.20
2022-12-01T12:53:38.904Z,11.19
2022-12-01T12:56:08.031Z,11.33
2022-12-01T12:58:37.844Z,11.62
2022-12-01T13:01:17.885Z,11.41
2022-12-01T13:04:00.729Z,11.58
2022-12-01T13:06:36.329Z,11.90
2022-12-01T13:09:11.509Z,12.21
2022-12-01T13:11:57.915Z,12.44
2022-12-01T13:14:38.641Z,12.47
2022-12-01T13:17:28.549Z,11.98
2022-12-01T13:19:55.029Z,12.42
2022-12-01T13:22:24.993Z,12.13
2022-12-01T13:24:51.454Z,12.18
2022-12-01T13:27:20.591Z,11.93
2022-12-01T13:29:49.898Z,12.27
2022-12-01T13:32:37.580Z,11.94
2022-12-01T13:35:29.360Z,12.27
2022-12-01T13:38:14.235Z,12.14
2022-12-01T13:40:40.649Z,11.94
2022-12-01T13:43:17.965Z,11.90
2022-12-01T13:45:44.683Z,11.60
2022-12-01T13:48:29.703Z,12.04
2022-12-01T13:51:01.955Z,11.77
2022-12-01T13:53:38.349Z,11.72
2022-12-01T13:56:07.980Z,11.94
2022-12-01T13:58:34.491Z,12.04
2022-12-01T14:01:19.748Z,11.94
2022-12-01T14:03:53.623Z,11.80
2022-12-01T14:06:46.347Z,11.59
2022-12-01T14:09:21.557Z,11.33
2022-12-01T14:12:00.827Z,11.28
2022-12-01T14:14:32.849Z,11.17
2022-12-01T14:17:02.487Z,10.99
2022-12-01T14:19:32.757Z,11.15
2022-12-01T14:22:05.543Z,11.10
2022-12-01T14:24:34.950Z,10.91
2022-12-01T14:27:02.392Z,11.28
2022-12-01T14:29:43.198Z,10.93
2022-12-01T14:32:09.648Z,10.88
2022-12-01T14:34:37.259Z,11.05
2022-12-01T14:37:05.581Z,11.02
2022-12-01T14:39:35.008Z,11.39
2022-12-01T14:42:04.211Z,11.28
2022-12-01T14:44:36.452Z,11.02
2022-12-01T14:47:21.497Z,11.16
2022-12-01T14:49:51.115Z,10.85
2022-12-01T14:52:48.250Z,11.21
2022-12-01T14:55:23.586Z,11.08
2022-12-01T14:57:52.536Z,10.90
2022-12-01T15:00:23.132Z,10.44
2022-12-01T15:02:55.084Z,10.45
2022-12-01T15:05:27.372Z,10.42
2022-12-01T15:08:40.260Z,10.12
2022-12-01T15:11:09.411Z,9.14
2022-12-01T15:13:54.917Z,9.13
2022-12-01T15:16:28.121Z,8.86
2022-12-01T15:18:55.496Z,9.26
2022-12-01T15:21:24.071Z,9.07
2022-12-01T15:23:56.601Z,8.95
2022-12-01T15:26:24.835Z,9.03
2022-12-01T15:29:04.791Z,8.97
2022-12-01T15:31:31.727Z,8.61
2022-12-01T15:33:58.342Z,8.09
2022-12-01T15:36:24.927Z,8.52
2022-12-01T15:38:51.508Z,8.25
2022-12-01T15:41:30.259Z,8.22
2022-12-01T15:44:00.385Z,8.62
2022-12-01T15:46:29.069Z,8.54
2022-12-01T15:49:20.753Z,8.56
2022-12-01T15:51:49.004Z,8.93
2022-12-01T15:54:23.174Z,9.00
2022-12-01T15:56:58.488Z,8.93
2022-12-01T15:59:36.575Z,8.90
2022-12-01T16:02:26.419Z,8.19
2022-12-01T16:05:20.059Z,8.54
2022-12-01T16:08:12.740Z,8.42
2022-12-01T16:10:36.410Z,8.26
2022-12-01T16:13:43.083Z,8.47
2022-12-01T16:16:31.191Z,8.28
2022-12-01T16:18:57.805Z,7.96
2022-12-01T16:21:25.347Z,8.10
2022-12-01T16:24:00.148Z,7.69
2022-12-01T16:26:26.897Z,7.69
2022-12-01T16:28:54.434Z,7.97
2022-12-01T16:31:21.148Z,7.54
2022-12-01T16:33:47.751Z,7.36
2022-12-01T16:36:14.840Z,8.06
2022-12-01T16:38:41.609Z,8.02
2022-12-01T16:41:16.630Z,7.71
2022-12-01T16:43:54.509Z,7.22
2022-12-01T16:46:30.762Z,7.27
2022-12-01T16:48:57.303Z,7.32
2022-12-01T16:51:29.979Z,7.28
2022-12-01T16:54:09.496Z,7.54
2022-12-01T16:56:35.985Z,7.89
2022-12-01T16:59:02.500Z,8.14
2022-12-01T17:01:29.464Z,7.61
2022-12-01T17:03:56.207Z,7.56
2022-12-01T17:06:22.784Z,7.22
2022-12-01T17:08:49.517Z,7.32
2022-12-01T17:11:15.989Z,6.95
2022-12-01T17:13:42.535Z,7.52
2022-12-01T17:16:15.231Z,7.64
2022-12-01T17:18:44.484Z,7.77
2022-12-01T17:21:11.594Z,8.08
2022-12-01T17:23:38.818Z,7.91
2022-12-01T17:26:10.522Z,8.35
2022-12-01T17:28:37.545Z,8.17
2022-12-01T17:31:04.657Z,8.78
2022-12-01T17:33:31.868Z,8.43
2022-12-01T17:36:03.941Z,8.37
2022-12-01T17:38:30.851Z,8.21
2022-12-01T17:41:02.435Z,8.59
2022-12-01T17:43:29.139Z,8.63
2022-12-01T17:45:56.015Z,8.30
2022-12-01T17:48:22.599Z,8.43
2022-12-01T17:50:49.098Z,8.52
2022-12-01T17:53:15.740Z,8.30
2022-12-01T17:55:42.480Z,8.63
2022-12-01T17:58:09.155Z,9.00
2022-12-01T18:00:35.747Z,8.34
2022-12-01T18:03:02.325Z,9.14
2022-12-01T18:05:29.494Z,8.60
2022-12-01T18:07:56.043Z,8.81
2022-12-01T18:10:22.552Z,8.88
2022-12-01T18:12:49.133Z,8.78
2022-12-01T18:15:17.371Z,9.04
2022-12-01T18:17:43.865Z,8.72
2022-12-01T18:20:10.688Z,9.05
2022-12-01T18:22:37.151Z,9.19
2022-12-01T18:25:03.694Z,9.07
2022-12-01T18:27:30.187Z,9.31
2022-12-01T18:29:56.717Z,9.55
2022-12-01T18:32:23.504Z,9.36
2022-12-01T18:34:50.366Z,9.21
2022-12-01T18:37:16.968Z,8.82
2022-12-01T18:39:43.456Z,9.40
2022-12-01T18:42:11.087Z,9.34
2022-12-01T18:44:38.845Z,9.26
2022-12-01T18:47:06.532Z,8.85
2022-12-01T18:49:33.221Z,9.51
2022-12-01T18:52:00.320Z,9.55
2022-12-01T18:54:26.960Z,9.44
2022-12-01T18:56:55.016Z,9.55
2022-12-01T18:59:21.694Z,9.46
2022-12-01T19:01:48.607Z,9.39
2022-12-01T19:04:16.523Z,9.71
2022-12-01T19:06:44.588Z,9.46
2022-12-01T19:09:12.508Z,9.38
2022-12-01T19:11:40.555Z,9.67
2022-12-01T19:14:08.114Z,9.25
2022-12-01T19:16:34.905Z,8.93
2022-12-01T19:19:01.823Z,9.00
2022-12-01T19:21:28.468Z,8.70
2022-12-01T19:23:54.966Z,9.07
2022-12-01T19:26:22.414Z,8.97
2022-12-01T19:28:49.259Z,8.91
2022-12-01T19:31:23.963Z,8.49
2022-12-01T19:33:52.323Z,8.58
2022-12-01T19:36:24.006Z,8.19
2022-12-01T19:38:50.876Z,7.85
2022-12-01T19:41:20.648Z,7.90
2022-12-01T19:43:47.543Z,7.91
2022-12-01T19:46:20.468Z,7.73
2022-12-01T19:48:47.700Z,7.51
2022-12-01T19:51:22.971Z,7.65
2022-12-01T19:53:50.126Z,7.36
2022-12-01T19:56:16.702Z,7.17
2022-12-01T19:58:44.157Z,7.21
2022-12-01T20:01:13.200Z,7.69
2022-12-01T20:03:40.904Z,7.92
2022-12-01T20:06:12.759Z,7.83
2022-12-01T20:08:39.627Z,7.97
2022-12-01T20:11:07.091Z,7.99
2022-12-01T20:13:38.570Z,7.82
2022-12-01T20:16:06.513Z,8.01
2022-12-01T20:18:33.108Z,8.09
2022-12-01T20:21:16.309Z,7.72
2022-12-01T20:23:44.459Z,7.88
2022-12-01T20:26:11.974Z,7.96
2022-12-01T20:28:39.589Z,7.31
2022-12-01T20:31:11.914Z,7.81
2022-12-01T20:33:39.329Z,7.73
2022-12-01T20:36:06.518Z,8.28
2022-12-01T20:38:33.182Z,8.11
2022-12-01T20:40:59.741Z,8.31
2022-12-01T20:43:26.372Z,8.33
2022-12-01T20:45:52.910Z,8.06
2022-12-01T20:48:19.502Z,7.60
2022-12-01T20:50:46.255Z,7.35
2022-12-01T20:53:13.109Z,6.96
2022-12-01T20:55:39.928Z,7.54
2022-12-01T20:58:09.836Z,7.09
2022-12-01T21:00:44.288Z,7.21
2022-12-01T21:03:11.744Z,7.43
2022-12-01T21:05:39.928Z,7.40
2022-12-01T21:08:08.197Z,7.92
2022-12-01T21:10:39.021Z,7.80
2022-12-01T21:13:42.299Z,7.62
2022-12-01T21:16:14.204Z,7.45
2022-12-01T21:18:51.986Z,7.23
2022-12-01T21:21:34.338Z,6.92
2022-12-01T21:24:13.982Z,7.19
2022-12-01T21:26:42.378Z,6.98
2022-12-01T21:29:24.741Z,7.26
2022-12-01T21:31:53.608Z,7.02
2022-12-01T21:34:25.207Z,7.42
2022-12-01T21:36:55.167Z,7.73
2022-12-01T21:39:23.481Z,8.22
2022-12-01T21:41:52.372Z,8.38
2022-12-01T21:44:20.872Z,7.92
2022-12-01T21:46:51.126Z,7.29
2022-12-01T21:49:19.769Z,7.81
2022-12-01T21:51:47.834Z,7.98
2022-12-01T21:54:22.295Z,8.26
2022-12-01T21:56:49.440Z,8.34
2022-12-01T21:59:22.441Z,8.48
2022-12-01T22:01:53.125Z,8.79
2022-12-01T22:04:25.299Z,8.79
2022-12-01T22:06:55.118Z,8.53
2022-12-01T22:09:33.622Z,8.79
2022-12-01T22:12:12.692Z,9.06
2022-12-01T22:14:39.153Z,8.04
2022-12-01T22:17:05.587Z,8.48
2022-12-01T22:19:38.172Z,8.79
2022-12-01T22:22:10.673Z,8.85
2022-12-01T22:24:49.191Z,8.83
2022-12-01T22:27:29.497Z,8.82
2022-12-01T22:29:58.328Z,8.94
2022-12-01T22:32:33.279Z,8.90
2022-12-01T22:35:26.027Z,8.39
2022-12-01T22:38:08.701Z,8.93
2022-12-01T22:41:06.061Z,9.29
2022-12-01T22:43:59.547Z,9.16
2022-12-01T22:46:30.614Z,9.27
2022-12-01T22:49:04.749Z,8.88
2022-12-01T22:51:42.007Z,9.37
2022-12-01T22:54:14.647Z,9.33
2022-12-01T22:56:46.525Z,9.24
2022-12-01T22:59:16.160Z,9.53
2022-12-01T23:01:54.251Z,9.16
2022-12-01T23:04:28.617Z,9.16
2022-12-01T23:07:22.957Z,9.66
2022-12-01T23:09:49.590Z,9.32
2022-12-01T23:12:30.487Z,9.35
2022-12-01T23:15:18.763Z,9.29
2022-12-01T23:17:45.210Z,9.32
2022-12-01T23:20:25.091Z,9.04
2022-12-01T23:22:56.242Z,8.78
2022-12-01T23:25:23.542Z,8.66
2022-12-01T23:27:52.911Z,8.96
2022-12-01T23:30:21.269Z,9.04
2022-12-01T23:32:56.319Z,8.43
2022-12-01T23:35:22.803Z,8.95
2022-12-01T23:37:49.265Z,8.77
2022-12-01T23:40:20.260Z,9.00
2022-12-01T23:42:47.178Z,9.04
2022-12-01T23:45:21.779Z,8.41
2022-12-01T23:47:49.370Z,8.52
2022-12-01T23:50:30.492Z,8.83
2022-12-01T23:52:57.578Z,9.03
2022-12-01T23:55:29.867Z,9.07
2022-12-01T23:57:57.127Z,9.02
